Tuscumbia, Alabama
Current Conditions -  °F | °C
As of 1:53 AM on Saturday 29 Nov 2014 (Local Time) from KMSL Reporting Station
Clear Clear  
Wind Chill: 40°   Ceiling: Unl
Heat Index: 44°   Visibility: 10mi
Dew Point: 25°   Wind: 8mph
Humidity: 47%   Direction: 190°S
Pressure: 30.19"   Gusts: NA
Location:  34.73°N, 87.7°W
Report Text: KMSL 290753Z AUTO 19007KT 10SM CLR 07/M04 A3019 RMK AO2 SLP222 T00671039
Loading
Personal Weather Stations






























Interactive Weather Map New forecast layout! Learn more

10-Day Weather Forecast

Advertisements
Track Severe Weather on mobile